Terminal Aerodrome Forecast
Issued by NWS

Home | Current Version | Previous Version | Graphics & Text | Print | Product List | Glossary On
Versions: 1 2 3 4 5 6 7 8 9 10 11 12 13 14 15 16
000
FTUS41 KCLE 271135
TAFFDY
TAF
KFDY 271135Z 2712/2812 VRB03KT P6SM SCT050
      TEMPO 2712/2714 5SM BR SCT007 SCT050
     FM271400 VRB03KT 6SM BR SCT025
      TEMPO 2714/2717 BKN025
     FM271700 VRB03KT P6SM BKN040
     FM280100 VRB03KT P6SM FEW040=

USA.gov is the U.S. government's official web portal to all federal, state and local government web resources and services.